sensor_id;sensor_type;location;lat;lon;timestamp;P1;durP1;ratioP1;P2;durP2;ratioP2
48963;SDS011;34776;48.180;16.420;2023-03-05T00:02:21;23.40;;;15.70;;
48963;SDS011;34776;48.180;16.420;2023-03-05T00:04:46;26.23;;;15.85;;
48963;SDS011;34776;48.180;16.420;2023-03-05T00:07:11;22.05;;;14.52;;
48963;SDS011;34776;48.180;16.420;2023-03-05T00:09:38;23.38;;;15.93;;
48963;SDS011;34776;48.180;16.420;2023-03-05T00:12:04;24.38;;;15.65;;
48963;SDS011;34776;48.180;16.420;2023-03-05T00:14:29;23.48;;;15.32;;
48963;SDS011;34776;48.180;16.420;2023-03-05T00:16:54;24.05;;;15.10;;
48963;SDS011;34776;48.180;16.420;2023-03-05T00:19:20;22.27;;;15.73;;
48963;SDS011;34776;48.180;16.420;2023-03-05T00:21:45;24.17;;;16.17;;
48963;SDS011;34776;48.180;16.420;2023-03-05T00:24:12;24.13;;;15.38;;
48963;SDS011;34776;48.180;16.420;2023-03-05T00:26:42;25.10;;;15.40;;
48963;SDS011;34776;48.180;16.420;2023-03-05T00:29:09;22.75;;;15.60;;
48963;SDS011;34776;48.180;16.420;2023-03-05T00:31:38;19.50;;;13.65;;
48963;SDS011;34776;48.180;16.420;2023-03-05T00:34:06;21.80;;;14.90;;
48963;SDS011;34776;48.180;16.420;2023-03-05T00:36:33;22.67;;;16.02;;
48963;SDS011;34776;48.180;16.420;2023-03-05T00:39:02;23.92;;;14.75;;
48963;SDS011;34776;48.180;16.420;2023-03-05T00:41:28;24.02;;;15.05;;
48963;SDS011;34776;48.180;16.420;2023-03-05T00:43:53;21.30;;;14.85;;
48963;SDS011;34776;48.180;16.420;2023-03-05T00:46:19;21.45;;;15.10;;
48963;SDS011;34776;48.180;16.420;2023-03-05T00:48:44;24.65;;;16.08;;
48963;SDS011;34776;48.180;16.420;2023-03-05T00:51:10;22.02;;;15.40;;
48963;SDS011;34776;48.180;16.420;2023-03-05T00:53:35;23.45;;;15.30;;
48963;SDS011;34776;48.180;16.420;2023-03-05T00:56:01;23.42;;;15.45;;
48963;SDS011;34776;48.180;16.420;2023-03-05T00:58:26;21.40;;;14.93;;
48963;SDS011;34776;48.180;16.420;2023-03-05T01:00:52;24.85;;;15.48;;
48963;SDS011;34776;48.180;16.420;2023-03-05T01:03:20;22.98;;;15.18;;
48963;SDS011;34776;48.180;16.420;2023-03-05T01:05:46;20.02;;;14.52;;
48963;SDS011;34776;48.180;16.420;2023-03-05T01:08:11;21.63;;;14.70;;
48963;SDS011;34776;48.180;16.420;2023-03-05T01:10:36;21.50;;;15.15;;
48963;SDS011;34776;48.180;16.420;2023-03-05T01:13:02;23.85;;;15.38;;
48963;SDS011;34776;48.180;16.420;2023-03-05T01:15:27;22.38;;;15.27;;
48963;SDS011;34776;48.180;16.420;2023-03-05T01:17:52;20.55;;;14.95;;
48963;SDS011;34776;48.180;16.420;2023-03-05T01:20:18;22.17;;;14.57;;
48963;SDS011;34776;48.180;16.420;2023-03-05T01:22:45;20.55;;;14.02;;
48963;SDS011;34776;48.180;16.420;2023-03-05T01:25:11;18.73;;;13.20;;
48963;SDS011;34776;48.180;16.420;2023-03-05T01:27:38;20.30;;;13.52;;
48963;SDS011;34776;48.180;16.420;2023-03-05T01:30:04;19.50;;;14.35;;
48963;SDS011;34776;48.180;16.420;2023-03-05T01:32:31;21.75;;;14.40;;
48963;SDS011;34776;48.180;16.420;2023-03-05T01:34:57;19.70;;;13.63;;
48963;SDS011;34776;48.180;16.420;2023-03-05T01:37:24;19.67;;;13.60;;
48963;SDS011;34776;48.180;16.420;2023-03-05T01:39:49;20.65;;;14.30;;
48963;SDS011;34776;48.180;16.420;2023-03-05T01:42:15;20.70;;;14.20;;
48963;SDS011;34776;48.180;16.420;2023-03-05T01:44:57;22.48;;;14.70;;
48963;SDS011;34776;48.180;16.420;2023-03-05T01:47:30;19.95;;;13.43;;
48963;SDS011;34776;48.180;16.420;2023-03-05T01:49:55;17.25;;;13.38;;
48963;SDS011;34776;48.180;16.420;2023-03-05T01:52:22;18.50;;;12.95;;
48963;SDS011;34776;48.180;16.420;2023-03-05T01:54:49;17.77;;;11.80;;
48963;SDS011;34776;48.180;16.420;2023-03-05T01:57:27;18.98;;;13.23;;
48963;SDS011;34776;48.180;16.420;2023-03-05T01:59:58;20.38;;;13.73;;
48963;SDS011;34776;48.180;16.420;2023-03-05T02:02:27;20.90;;;14.20;;
48963;SDS011;34776;48.180;16.420;2023-03-05T02:04:54;20.17;;;14.05;;
48963;SDS011;34776;48.180;16.420;2023-03-05T02:07:23;22.67;;;13.93;;
48963;SDS011;34776;48.180;16.420;2023-03-05T02:09:49;21.90;;;13.90;;
48963;SDS011;34776;48.180;16.420;2023-03-05T02:12:14;23.55;;;13.73;;
48963;SDS011;34776;48.180;16.420;2023-03-05T02:14:41;24.10;;;15.00;;
48963;SDS011;34776;48.180;16.420;2023-03-05T02:17:09;18.33;;;13.77;;
48963;SDS011;34776;48.180;16.420;2023-03-05T02:19:46;20.75;;;13.60;;
48963;SDS011;34776;48.180;16.420;2023-03-05T02:22:16;19.95;;;14.70;;
48963;SDS011;34776;48.180;16.420;2023-03-05T02:24:43;20.45;;;14.65;;
48963;SDS011;34776;48.180;16.420;2023-03-05T02:27:09;24.25;;;14.30;;
48963;SDS011;34776;48.180;16.420;2023-03-05T02:29:36;21.50;;;13.93;;
48963;SDS011;34776;48.180;16.420;2023-03-05T02:32:06;18.77;;;12.93;;
48963;SDS011;34776;48.180;16.420;2023-03-05T02:34:33;20.65;;;14.20;;
48963;SDS011;34776;48.180;16.420;2023-03-05T02:36:59;23.92;;;15.65;;
48963;SDS011;34776;48.180;16.420;2023-03-05T02:39:26;19.52;;;13.80;;
48963;SDS011;34776;48.180;16.420;2023-03-05T02:41:52;17.80;;;13.55;;
48963;SDS011;34776;48.180;16.420;2023-03-05T02:44:17;17.95;;;11.90;;
48963;SDS011;34776;48.180;16.420;2023-03-05T02:46:42;17.02;;;12.55;;
48963;SDS011;34776;48.180;16.420;2023-03-05T02:49:08;20.77;;;13.90;;
48963;SDS011;34776;48.180;16.420;2023-03-05T02:51:33;20.65;;;13.88;;
48963;SDS011;34776;48.180;16.420;2023-03-05T02:53:58;16.40;;;12.73;;
48963;SDS011;34776;48.180;16.420;2023-03-05T02:56:24;19.52;;;13.80;;
48963;SDS011;34776;48.180;16.420;2023-03-05T02:58:49;20.38;;;14.07;;
48963;SDS011;34776;48.180;16.420;2023-03-05T03:01:14;20.13;;;14.15;;
48963;SDS011;34776;48.180;16.420;2023-03-05T03:03:40;20.77;;;14.23;;
48963;SDS011;34776;48.180;16.420;2023-03-05T03:06:05;19.55;;;13.93;;
48963;SDS011;34776;48.180;16.420;2023-03-05T03:08:31;20.77;;;13.60;;
48963;SDS011;34776;48.180;16.420;2023-03-05T03:11:02;21.63;;;14.80;;
48963;SDS011;34776;48.180;16.420;2023-03-05T03:13:31;20.55;;;14.52;;
48963;SDS011;34776;48.180;16.420;2023-03-05T03:16:00;18.17;;;13.70;;
48963;SDS011;34776;48.180;16.420;2023-03-05T03:18:27;20.40;;;14.65;;
48963;SDS011;34776;48.180;16.420;2023-03-05T03:20:52;19.58;;;13.82;;
48963;SDS011;34776;48.180;16.420;2023-03-05T03:23:18;21.08;;;14.70;;
48963;SDS011;34776;48.180;16.420;2023-03-05T03:25:43;19.42;;;14.15;;
48963;SDS011;34776;48.180;16.420;2023-03-05T03:28:08;21.33;;;15.02;;
48963;SDS011;34776;48.180;16.420;2023-03-05T03:30:34;18.52;;;13.35;;
48963;SDS011;34776;48.180;16.420;2023-03-05T03:32:59;19.88;;;13.82;;
48963;SDS011;34776;48.180;16.420;2023-03-05T03:35:25;19.52;;;13.82;;
48963;SDS011;34776;48.180;16.420;2023-03-05T03:37:50;20.20;;;14.48;;
48963;SDS011;34776;48.180;16.420;2023-03-05T03:40:15;22.00;;;14.57;;
48963;SDS011;34776;48.180;16.420;2023-03-05T03:42:41;19.70;;;13.85;;
48963;SDS011;34776;48.180;16.420;2023-03-05T03:45:06;18.55;;;14.02;;
48963;SDS011;34776;48.180;16.420;2023-03-05T03:47:32;19.42;;;13.80;;
48963;SDS011;34776;48.180;16.420;2023-03-05T03:49:58;22.80;;;14.45;;
48963;SDS011;34776;48.180;16.420;2023-03-05T03:52:23;18.58;;;13.65;;
48963;SDS011;34776;48.180;16.420;2023-03-05T03:54:49;20.48;;;14.10;;
48963;SDS011;34776;48.180;16.420;2023-03-05T03:57:16;21.73;;;14.60;;
48963;SDS011;34776;48.180;16.420;2023-03-05T03:59:41;21.73;;;13.38;;
48963;SDS011;34776;48.180;16.420;2023-03-05T04:02:09;17.30;;;13.50;;
48963;SDS011;34776;48.180;16.420;2023-03-05T04:04:34;20.17;;;14.52;;
48963;SDS011;34776;48.180;16.420;2023-03-05T04:07:00;18.67;;;13.82;;
48963;SDS011;34776;48.180;16.420;2023-03-05T04:09:25;17.98;;;13.40;;
48963;SDS011;34776;48.180;16.420;2023-03-05T04:11:50;18.45;;;13.35;;
48963;SDS011;34776;48.180;16.420;2023-03-05T04:14:16;18.67;;;13.23;;
48963;SDS011;34776;48.180;16.420;2023-03-05T04:16:41;19.75;;;13.68;;
48963;SDS011;34776;48.180;16.420;2023-03-05T04:19:06;16.92;;;11.90;;
48963;SDS011;34776;48.180;16.420;2023-03-05T04:21:32;18.92;;;13.13;;
48963;SDS011;34776;48.180;16.420;2023-03-05T04:23:57;17.42;;;12.77;;
48963;SDS011;34776;48.180;16.420;2023-03-05T04:26:23;19.00;;;14.13;;
48963;SDS011;34776;48.180;16.420;2023-03-05T04:28:48;18.58;;;13.68;;
48963;SDS011;34776;48.180;16.420;2023-03-05T04:31:13;15.38;;;11.27;;
48963;SDS011;34776;48.180;16.420;2023-03-05T04:33:39;23.35;;;14.10;;
48963;SDS011;34776;48.180;16.420;2023-03-05T04:36:05;18.92;;;13.10;;
48963;SDS011;34776;48.180;16.420;2023-03-05T04:38:30;17.38;;;13.20;;
48963;SDS011;34776;48.180;16.420;2023-03-05T04:40:56;18.20;;;13.82;;
48963;SDS011;34776;48.180;16.420;2023-03-05T04:43:21;15.85;;;12.35;;
48963;SDS011;34776;48.180;16.420;2023-03-05T04:45:46;16.35;;;13.02;;
48963;SDS011;34776;48.180;16.420;2023-03-05T04:48:12;19.63;;;13.57;;
48963;SDS011;34776;48.180;16.420;2023-03-05T04:50:37;19.85;;;14.30;;
48963;SDS011;34776;48.180;16.420;2023-03-05T04:53:03;19.88;;;13.02;;
48963;SDS011;34776;48.180;16.420;2023-03-05T04:55:29;19.65;;;13.90;;
48963;SDS011;34776;48.180;16.420;2023-03-05T04:57:54;21.13;;;13.98;;
48963;SDS011;34776;48.180;16.420;2023-03-05T05:00:20;18.73;;;13.23;;
48963;SDS011;34776;48.180;16.420;2023-03-05T05:02:48;21.25;;;14.63;;
48963;SDS011;34776;48.180;16.420;2023-03-05T05:05:16;22.67;;;13.95;;
48963;SDS011;34776;48.180;16.420;2023-03-05T05:07:43;19.77;;;14.48;;
48963;SDS011;34776;48.180;16.420;2023-03-05T05:10:09;19.25;;;13.80;;
48963;SDS011;34776;48.180;16.420;2023-03-05T05:12:36;17.92;;;13.50;;
48963;SDS011;34776;48.180;16.420;2023-03-05T05:15:02;19.92;;;14.40;;
48963;SDS011;34776;48.180;16.420;2023-03-05T05:17:28;17.17;;;13.32;;
48963;SDS011;34776;48.180;16.420;2023-03-05T05:19:56;18.85;;;14.18;;
48963;SDS011;34776;48.180;16.420;2023-03-05T05:22:23;18.55;;;14.50;;
48963;SDS011;34776;48.180;16.420;2023-03-05T05:24:48;18.67;;;14.20;;
48963;SDS011;34776;48.180;16.420;2023-03-05T05:27:13;19.20;;;14.07;;
48963;SDS011;34776;48.180;16.420;2023-03-05T05:29:38;19.67;;;13.85;;
48963;SDS011;34776;48.180;16.420;2023-03-05T05:32:04;18.10;;;14.15;;
48963;SDS011;34776;48.180;16.420;2023-03-05T05:34:29;19.90;;;14.20;;
48963;SDS011;34776;48.180;16.420;2023-03-05T05:36:55;16.95;;;13.15;;
48963;SDS011;34776;48.180;16.420;2023-03-05T05:39:20;20.50;;;14.63;;
48963;SDS011;34776;48.180;16.420;2023-03-05T05:41:48;19.92;;;14.15;;
48963;SDS011;34776;48.180;16.420;2023-03-05T05:44:15;17.00;;;12.40;;
48963;SDS011;34776;48.180;16.420;2023-03-05T05:46:40;21.00;;;15.50;;
48963;SDS011;34776;48.180;16.420;2023-03-05T05:49:06;17.52;;;14.07;;
48963;SDS011;34776;48.180;16.420;2023-03-05T05:51:31;19.60;;;14.52;;
48963;SDS011;34776;48.180;16.420;2023-03-05T05:53:57;19.17;;;14.02;;
48963;SDS011;34776;48.180;16.420;2023-03-05T05:56:22;21.60;;;14.23;;
48963;SDS011;34776;48.180;16.420;2023-03-05T05:58:48;18.38;;;13.82;;
48963;SDS011;34776;48.180;16.420;2023-03-05T06:01:21;22.08;;;14.57;;
48963;SDS011;34776;48.180;16.420;2023-03-05T06:03:49;15.18;;;12.40;;
48963;SDS011;34776;48.180;16.420;2023-03-05T06:06:16;17.92;;;14.10;;
48963;SDS011;34776;48.180;16.420;2023-03-05T06:08:43;17.52;;;12.95;;
48963;SDS011;34776;48.180;16.420;2023-03-05T06:11:08;16.55;;;13.45;;
48963;SDS011;34776;48.180;16.420;2023-03-05T06:13:34;17.20;;;13.18;;
48963;SDS011;34776;48.180;16.420;2023-03-05T06:16:01;20.42;;;14.07;;
48963;SDS011;34776;48.180;16.420;2023-03-05T06:18:28;19.98;;;14.07;;
48963;SDS011;34776;48.180;16.420;2023-03-05T06:20:58;19.35;;;14.35;;
48963;SDS011;34776;48.180;16.420;2023-03-05T06:23:31;16.52;;;12.55;;
48963;SDS011;34776;48.180;16.420;2023-03-05T06:25:58;19.02;;;13.52;;
48963;SDS011;34776;48.180;16.420;2023-03-05T06:28:25;20.85;;;13.40;;
48963;SDS011;34776;48.180;16.420;2023-03-05T06:30:58;17.60;;;13.90;;
48963;SDS011;34776;48.180;16.420;2023-03-05T06:33:34;20.48;;;13.18;;
48963;SDS011;34776;48.180;16.420;2023-03-05T06:36:04;20.45;;;14.18;;
48963;SDS011;34776;48.180;16.420;2023-03-05T06:38:31;15.98;;;12.25;;
48963;SDS011;34776;48.180;16.420;2023-03-05T06:41:01;19.67;;;14.57;;
48963;SDS011;34776;48.180;16.420;2023-03-05T06:43:29;17.40;;;13.15;;
48963;SDS011;34776;48.180;16.420;2023-03-05T06:46:14;15.73;;;12.68;;
48963;SDS011;34776;48.180;16.420;2023-03-05T06:48:44;20.40;;;14.70;;
48963;SDS011;34776;48.180;16.420;2023-03-05T06:51:17;20.25;;;14.02;;
48963;SDS011;34776;48.180;16.420;2023-03-05T06:53:45;18.40;;;13.18;;
48963;SDS011;34776;48.180;16.420;2023-03-05T06:56:11;16.55;;;12.93;;
48963;SDS011;34776;48.180;16.420;2023-03-05T06:58:37;16.65;;;13.35;;
48963;SDS011;34776;48.180;16.420;2023-03-05T07:01:04;20.38;;;14.52;;
48963;SDS011;34776;48.180;16.420;2023-03-05T07:03:31;19.92;;;14.10;;
48963;SDS011;34776;48.180;16.420;2023-03-05T07:05:57;20.80;;;13.73;;
48963;SDS011;34776;48.180;16.420;2023-03-05T07:08:23;23.95;;;16.85;;
48963;SDS011;34776;48.180;16.420;2023-03-05T07:10:48;22.20;;;16.23;;
48963;SDS011;34776;48.180;16.420;2023-03-05T07:13:13;21.85;;;15.98;;
48963;SDS011;34776;48.180;16.420;2023-03-05T07:15:39;20.85;;;17.20;;
48963;SDS011;34776;48.180;16.420;2023-03-05T07:18:07;22.70;;;15.65;;
48963;SDS011;34776;48.180;16.420;2023-03-05T07:20:33;22.80;;;16.58;;
48963;SDS011;34776;48.180;16.420;2023-03-05T07:22:59;24.08;;;18.05;;
48963;SDS011;34776;48.180;16.420;2023-03-05T07:25:25;23.95;;;16.88;;
48963;SDS011;34776;48.180;16.420;2023-03-05T07:27:50;24.08;;;17.73;;
48963;SDS011;34776;48.180;16.420;2023-03-05T07:30:15;23.85;;;16.95;;
48963;SDS011;34776;48.180;16.420;2023-03-05T07:32:41;23.05;;;15.00;;
48963;SDS011;34776;48.180;16.420;2023-03-05T07:35:07;21.38;;;16.15;;
48963;SDS011;34776;48.180;16.420;2023-03-05T07:37:32;22.55;;;16.63;;
48963;SDS011;34776;48.180;16.420;2023-03-05T07:39:58;23.52;;;17.02;;
48963;SDS011;34776;48.180;16.420;2023-03-05T07:42:23;21.52;;;16.00;;
48963;SDS011;34776;48.180;16.420;2023-03-05T07:44:49;22.05;;;15.82;;
48963;SDS011;34776;48.180;16.420;2023-03-05T07:47:14;20.02;;;15.50;;
48963;SDS011;34776;48.180;16.420;2023-03-05T07:49:40;22.13;;;15.77;;
48963;SDS011;34776;48.180;16.420;2023-03-05T07:52:05;23.63;;;17.38;;
48963;SDS011;34776;48.180;16.420;2023-03-05T07:54:31;22.83;;;16.52;;
48963;SDS011;34776;48.180;16.420;2023-03-05T07:57:01;21.25;;;15.82;;
48963;SDS011;34776;48.180;16.420;2023-03-05T07:59:27;20.83;;;15.32;;
48963;SDS011;34776;48.180;16.420;2023-03-05T08:01:52;21.75;;;16.10;;
48963;SDS011;34776;48.180;16.420;2023-03-05T08:04:18;20.10;;;15.75;;
48963;SDS011;34776;48.180;16.420;2023-03-05T08:06:43;20.23;;;14.60;;
48963;SDS011;34776;48.180;16.420;2023-03-05T08:09:10;24.50;;;17.58;;
48963;SDS011;34776;48.180;16.420;2023-03-05T08:11:36;21.80;;;16.00;;
48963;SDS011;34776;48.180;16.420;2023-03-05T08:14:03;24.52;;;16.00;;
48963;SDS011;34776;48.180;16.420;2023-03-05T08:16:29;19.48;;;15.55;;
48963;SDS011;34776;48.180;16.420;2023-03-05T08:18:55;19.92;;;15.55;;
48963;SDS011;34776;48.180;16.420;2023-03-05T08:21:22;24.67;;;16.45;;
48963;SDS011;34776;48.180;16.420;2023-03-05T08:23:53;20.75;;;15.35;;
48963;SDS011;34776;48.180;16.420;2023-03-05T08:26:21;22.27;;;15.40;;
48963;SDS011;34776;48.180;16.420;2023-03-05T08:28:48;19.67;;;15.05;;
48963;SDS011;34776;48.180;16.420;2023-03-05T08:31:14;20.75;;;16.10;;
48963;SDS011;34776;48.180;16.420;2023-03-05T08:33:41;21.77;;;16.38;;
48963;SDS011;34776;48.180;16.420;2023-03-05T08:36:07;22.02;;;15.73;;
48963;SDS011;34776;48.180;16.420;2023-03-05T08:38:33;22.02;;;16.13;;
48963;SDS011;34776;48.180;16.420;2023-03-05T08:40:59;21.65;;;15.88;;
48963;SDS011;34776;48.180;16.420;2023-03-05T08:43:25;22.15;;;16.33;;
48963;SDS011;34776;48.180;16.420;2023-03-05T08:45:50;20.98;;;16.52;;
48963;SDS011;34776;48.180;16.420;2023-03-05T08:48:17;20.63;;;15.98;;
48963;SDS011;34776;48.180;16.420;2023-03-05T08:50:43;19.05;;;15.77;;
48963;SDS011;34776;48.180;16.420;2023-03-05T08:53:08;20.17;;;15.70;;
48963;SDS011;34776;48.180;16.420;2023-03-05T08:55:33;20.90;;;16.48;;
48963;SDS011;34776;48.180;16.420;2023-03-05T08:57:59;19.83;;;15.70;;
48963;SDS011;34776;48.180;16.420;2023-03-05T09:00:24;19.95;;;14.73;;
48963;SDS011;34776;48.180;16.420;2023-03-05T09:02:49;18.42;;;15.32;;
48963;SDS011;34776;48.180;16.420;2023-03-05T09:05:15;20.38;;;16.55;;
48963;SDS011;34776;48.180;16.420;2023-03-05T09:07:41;23.23;;;15.77;;
48963;SDS011;34776;48.180;16.420;2023-03-05T09:10:07;22.58;;;16.63;;
48963;SDS011;34776;48.180;16.420;2023-03-05T09:12:35;22.42;;;16.27;;
48963;SDS011;34776;48.180;16.420;2023-03-05T09:15:01;20.38;;;16.85;;
48963;SDS011;34776;48.180;16.420;2023-03-05T09:17:27;22.95;;;16.75;;
48963;SDS011;34776;48.180;16.420;2023-03-05T09:19:53;21.25;;;16.92;;
48963;SDS011;34776;48.180;16.420;2023-03-05T09:22:18;22.35;;;17.20;;
48963;SDS011;34776;48.180;16.420;2023-03-05T09:24:43;22.40;;;16.48;;
48963;SDS011;34776;48.180;16.420;2023-03-05T09:27:09;18.95;;;14.75;;
48963;SDS011;34776;48.180;16.420;2023-03-05T09:29:34;20.77;;;17.15;;
48963;SDS011;34776;48.180;16.420;2023-03-05T09:31:59;22.77;;;17.75;;
48963;SDS011;34776;48.180;16.420;2023-03-05T09:34:25;26.88;;;17.95;;
48963;SDS011;34776;48.180;16.420;2023-03-05T09:36:50;23.38;;;17.23;;
48963;SDS011;34776;48.180;16.420;2023-03-05T09:39:16;23.85;;;16.85;;
48963;SDS011;34776;48.180;16.420;2023-03-05T09:42:03;22.23;;;17.85;;
48963;SDS011;34776;48.180;16.420;2023-03-05T09:47:47;21.15;;;15.70;;
48963;SDS011;34776;48.180;16.420;2023-03-05T09:50:32;22.25;;;17.50;;
48963;SDS011;34776;48.180;16.420;2023-03-05T09:55:49;21.27;;;17.83;;
48963;SDS011;34776;48.180;16.420;2023-03-05T09:58:32;19.90;;;16.88;;
48963;SDS011;34776;48.180;16.420;2023-03-05T10:06:39;19.58;;;15.50;;
48963;SDS011;34776;48.180;16.420;2023-03-05T10:09:42;20.23;;;15.80;;
48963;SDS011;34776;48.180;16.420;2023-03-05T10:14:56;20.40;;;15.60;;
48963;SDS011;34776;48.180;16.420;2023-03-05T10:20:18;20.85;;;16.55;;
48963;SDS011;34776;48.180;16.420;2023-03-05T10:22:55;22.13;;;17.02;;
48963;SDS011;34776;48.180;16.420;2023-03-05T10:28:42;21.85;;;17.27;;
48963;SDS011;34776;48.180;16.420;2023-03-05T10:31:20;22.60;;;17.45;;
48963;SDS011;34776;48.180;16.420;2023-03-05T10:37:05;22.27;;;17.08;;
48963;SDS011;34776;48.180;16.420;2023-03-05T10:39:55;23.40;;;16.90;;
48963;SDS011;34776;48.180;16.420;2023-03-05T10:47:54;19.65;;;15.55;;
48963;SDS011;34776;48.180;16.420;2023-03-05T10:50:27;21.92;;;16.92;;
48963;SDS011;34776;48.180;16.420;2023-03-05T10:55:44;23.20;;;18.08;;
48963;SDS011;34776;48.180;16.420;2023-03-05T10:58:14;20.80;;;17.00;;
48963;SDS011;34776;48.180;16.420;2023-03-05T11:03:53;21.58;;;16.52;;
48963;SDS011;34776;48.180;16.420;2023-03-05T11:09:14;20.42;;;16.02;;
48963;SDS011;34776;48.180;16.420;2023-03-05T11:12:01;19.90;;;16.40;;
48963;SDS011;34776;48.180;16.420;2023-03-05T11:14:27;20.02;;;15.23;;
48963;SDS011;34776;48.180;16.420;2023-03-05T11:16:57;19.00;;;15.27;;
48963;SDS011;34776;48.180;16.420;2023-03-05T11:22:06;19.52;;;15.75;;
48963;SDS011;34776;48.180;16.420;2023-03-05T11:24:39;18.63;;;15.20;;
48963;SDS011;34776;48.180;16.420;2023-03-05T11:27:20;21.67;;;17.92;;
48963;SDS011;34776;48.180;16.420;2023-03-05T11:29:52;20.75;;;16.65;;
48963;SDS011;34776;48.180;16.420;2023-03-05T11:32:22;26.40;;;18.77;;
48963;SDS011;34776;48.180;16.420;2023-03-05T11:34:50;21.85;;;16.38;;
48963;SDS011;34776;48.180;16.420;2023-03-05T11:37:26;22.17;;;17.25;;
48963;SDS011;34776;48.180;16.420;2023-03-05T11:40:17;17.15;;;14.35;;
48963;SDS011;34776;48.180;16.420;2023-03-05T11:42:45;22.75;;;17.13;;
48963;SDS011;34776;48.180;16.420;2023-03-05T11:45:17;22.30;;;16.25;;
48963;SDS011;34776;48.180;16.420;2023-03-05T11:47:57;21.10;;;15.75;;
48963;SDS011;34776;48.180;16.420;2023-03-05T11:50:29;19.92;;;17.13;;
48963;SDS011;34776;48.180;16.420;2023-03-05T11:53:04;23.55;;;18.33;;
48963;SDS011;34776;48.180;16.420;2023-03-05T11:55:40;20.65;;;17.35;;
48963;SDS011;34776;48.180;16.420;2023-03-05T12:01:05;22.08;;;16.20;;
48963;SDS011;34776;48.180;16.420;2023-03-05T12:03:38;19.52;;;14.98;;
48963;SDS011;34776;48.180;16.420;2023-03-05T12:08:30;23.80;;;17.40;;
48963;SDS011;34776;48.180;16.420;2023-03-05T12:11:00;22.08;;;16.67;;
48963;SDS011;34776;48.180;16.420;2023-03-05T12:13:34;21.98;;;16.42;;
48963;SDS011;34776;48.180;16.420;2023-03-05T12:21:42;22.40;;;15.10;;
48963;SDS011;34776;48.180;16.420;2023-03-05T12:24:31;20.05;;;16.00;;
48963;SDS011;34776;48.180;16.420;2023-03-05T12:31:52;23.38;;;15.00;;
48963;SDS011;34776;48.180;16.420;2023-03-05T12:39:46;21.50;;;15.88;;
48963;SDS011;34776;48.180;16.420;2023-03-05T12:55:55;24.63;;;16.63;;
48963;SDS011;34776;48.180;16.420;2023-03-05T13:03:57;14.75;;;10.60;;
48963;SDS011;34776;48.180;16.420;2023-03-05T13:08:54;11.98;;;8.77;;
48963;SDS011;34776;48.180;16.420;2023-03-05T13:11:21;11.57;;;8.65;;
48963;SDS011;34776;48.180;16.420;2023-03-05T13:13:47;14.93;;;8.50;;
48963;SDS011;34776;48.180;16.420;2023-03-05T13:16:26;10.98;;;7.20;;
48963;SDS011;34776;48.180;16.420;2023-03-05T13:18:55;9.93;;;7.70;;
48963;SDS011;34776;48.180;16.420;2023-03-05T13:21:28;13.35;;;7.90;;
48963;SDS011;34776;48.180;16.420;2023-03-05T13:24:00;14.50;;;9.77;;
48963;SDS011;34776;48.180;16.420;2023-03-05T13:26:27;11.73;;;7.53;;
48963;SDS011;34776;48.180;16.420;2023-03-05T13:34:17;10.90;;;6.55;;
48963;SDS011;34776;48.180;16.420;2023-03-05T13:36:46;8.88;;;6.35;;
48963;SDS011;34776;48.180;16.420;2023-03-05T13:39:19;8.25;;;6.47;;
48963;SDS011;34776;48.180;16.420;2023-03-05T13:42:22;8.88;;;6.22;;
48963;SDS011;34776;48.180;16.420;2023-03-05T13:44:57;10.43;;;6.47;;
48963;SDS011;34776;48.180;16.420;2023-03-05T13:47:25;7.15;;;5.70;;
48963;SDS011;34776;48.180;16.420;2023-03-05T13:49:59;8.30;;;5.40;;
48963;SDS011;34776;48.180;16.420;2023-03-05T13:52:30;11.68;;;5.90;;
48963;SDS011;34776;48.180;16.420;2023-03-05T13:54:57;6.95;;;5.38;;
48963;SDS011;34776;48.180;16.420;2023-03-05T13:57:38;5.90;;;4.68;;
48963;SDS011;34776;48.180;16.420;2023-03-05T14:05:44;11.10;;;6.70;;
48963;SDS011;34776;48.180;16.420;2023-03-05T14:08:20;8.73;;;5.28;;
48963;SDS011;34776;48.180;16.420;2023-03-05T14:10:49;6.13;;;4.90;;
48963;SDS011;34776;48.180;16.420;2023-03-05T14:13:19;8.55;;;5.30;;
48963;SDS011;34776;48.180;16.420;2023-03-05T14:18:31;6.57;;;4.15;;
48963;SDS011;34776;48.180;16.420;2023-03-05T14:20:58;6.60;;;4.22;;
48963;SDS011;34776;48.180;16.420;2023-03-05T14:23:35;6.32;;;4.43;;
48963;SDS011;34776;48.180;16.420;2023-03-05T14:28:52;10.63;;;5.05;;
48963;SDS011;34776;48.180;16.420;2023-03-05T14:31:44;7.32;;;4.40;;
48963;SDS011;34776;48.180;16.420;2023-03-05T14:34:21;6.70;;;4.53;;
48963;SDS011;34776;48.180;16.420;2023-03-05T14:36:50;5.75;;;3.80;;
48963;SDS011;34776;48.180;16.420;2023-03-05T14:44:45;10.23;;;4.85;;
48963;SDS011;34776;48.180;16.420;2023-03-05T14:47:10;6.22;;;4.70;;
48963;SDS011;34776;48.180;16.420;2023-03-05T14:49:36;8.82;;;4.93;;
48963;SDS011;34776;48.180;16.420;2023-03-05T14:52:01;8.13;;;5.93;;
48963;SDS011;34776;48.180;16.420;2023-03-05T14:54:27;7.40;;;4.70;;
48963;SDS011;34776;48.180;16.420;2023-03-05T14:56:56;5.18;;;3.42;;
48963;SDS011;34776;48.180;16.420;2023-03-05T14:59:22;6.25;;;4.35;;
48963;SDS011;34776;48.180;16.420;2023-03-05T15:01:47;9.70;;;4.50;;
48963;SDS011;34776;48.180;16.420;2023-03-05T15:04:14;7.35;;;4.47;;
48963;SDS011;34776;48.180;16.420;2023-03-05T15:06:43;6.70;;;4.10;;
48963;SDS011;34776;48.180;16.420;2023-03-05T15:09:12;8.32;;;4.15;;
48963;SDS011;34776;48.180;16.420;2023-03-05T15:11:41;7.55;;;4.43;;
48963;SDS011;34776;48.180;16.420;2023-03-05T15:14:10;6.60;;;4.53;;
48963;SDS011;34776;48.180;16.420;2023-03-05T15:16:36;7.03;;;4.20;;
48963;SDS011;34776;48.180;16.420;2023-03-05T15:19:05;7.85;;;4.35;;
48963;SDS011;34776;48.180;16.420;2023-03-05T15:21:31;10.20;;;4.70;;
48963;SDS011;34776;48.180;16.420;2023-03-05T15:23:56;6.50;;;3.90;;
48963;SDS011;34776;48.180;16.420;2023-03-05T15:26:21;6.28;;;4.28;;
48963;SDS011;34776;48.180;16.420;2023-03-05T15:28:47;6.05;;;4.18;;
48963;SDS011;34776;48.180;16.420;2023-03-05T15:31:12;6.90;;;4.15;;
48963;SDS011;34776;48.180;16.420;2023-03-05T15:33:40;6.15;;;4.38;;
48963;SDS011;34776;48.180;16.420;2023-03-05T15:36:06;6.15;;;4.60;;
48963;SDS011;34776;48.180;16.420;2023-03-05T15:38:32;13.52;;;9.50;;
48963;SDS011;34776;48.180;16.420;2023-03-05T15:40:58;10.82;;;6.30;;
48963;SDS011;34776;48.180;16.420;2023-03-05T15:43:23;9.13;;;5.82;;
48963;SDS011;34776;48.180;16.420;2023-03-05T15:45:49;8.63;;;5.07;;
48963;SDS011;34776;48.180;16.420;2023-03-05T15:48:14;8.38;;;4.93;;
48963;SDS011;34776;48.180;16.420;2023-03-05T15:50:40;9.13;;;4.43;;
48963;SDS011;34776;48.180;16.420;2023-03-05T15:53:06;7.55;;;4.28;;
48963;SDS011;34776;48.180;16.420;2023-03-05T15:55:36;6.65;;;4.88;;
48963;SDS011;34776;48.180;16.420;2023-03-05T15:58:03;7.85;;;4.43;;
48963;SDS011;34776;48.180;16.420;2023-03-05T16:00:29;8.45;;;4.68;;
48963;SDS011;34776;48.180;16.420;2023-03-05T16:02:55;9.23;;;4.78;;
48963;SDS011;34776;48.180;16.420;2023-03-05T16:05:20;7.25;;;4.63;;